Forside
METAR-TAF:

METAR-TAF

Lufthavne :

Saint-Denis, Réunion

Breddekreds: 20-53S, længdekreds: 055-31E, højde: 21 m

Aktuelle vejr

Denne rapport blev lavet for 39 minutter siden, kl. 17:30 UTC
Vind 12 kt fra sydøst
Temperatur 22°C
Fugtighed 69%
Tryk 1026 hPa
Sigt 10 km eller mere
Nogle få skyer i en højde af 3300 ft
Spredte skyer i en højde af 5400 ft

METAR: FMEE 141730Z AUTO 13012KT 9999 FEW033 SCT054 22/16 Q1026 NOSIG

Tid: 22:09 (18:09 UTC)

Vejrudsigter

Denne rapport blev lavet for 1 time og 9 minutter siden, kl. 17:00 UTC
Foreløbig gælder fra 14 på 18 UTC til 15 på 24 UTC
Vind 15 kt fra østsydøst
Sigt 10 km eller mere
Spredte skyer i en højde af 3000 ft
ændring
fra 15 på 04 UTC til 15 på 06 UTC
Vind 20 kt fra øst med vindstød på up til 30 kt

TAF: FMEE 141700Z 1418/1524 12015KT 9999 SCT030 BECMG 1504/1506 10020G30KT

Vejrobservationer og prognoser fra mere end 4000 lufthavne (METAR og TAF).

De gule og røde prikker repræsenterer de meteorologiske stationer.

Flyt musen over at se navnet på stationen.

Så klik over at se vejr observationer og prognoser.

At skifte det kort: Klik på de grønne knapper med et sort kors for at zoome ind; på den grønne knap med en bindestreg for at zoome ud; eller på de grønne pile for tilstødende kort.


METAR-TAF: